Time;durP1;ratioP1;P1;durP2;ratioP2;P2;SDS_P1;SDS_P2;PMS_P1;PMS_P2;Temp;Humidity;BMP_temperature;BMP_pressure;BME280_temperature;BME280_humidity;BME280_pressure;Samples;Min_cycle;Max_cycle;Signal;HPM_P1;HPM_P2
2024/01/07 00:01:57;;;;;;;76.75;28.83;;;;;;;;;;4996745;28;20218;-86
2024/01/07 00:04:23;;;;;;;74.70;31.47;;;;;;;;;;4997534;28;20241;-85
2024/01/07 00:06:49;;;;;;;72.77;30.33;;;;;;;;;;4997555;28;20414;-85
2024/01/07 00:09:16;;;;;;;74.97;28.70;;;;;;;;;;5008340;28;20479;-85
2024/01/07 00:11:42;;;;;;;73.53;30.25;;;;;;;;;;5006872;28;20784;-85
2024/01/07 00:14:08;;;;;;;65.25;29.15;;;;;;;;;;4998394;28;20182;-85
2024/01/07 00:16:34;;;;;;;75.28;31.70;;;;;;;;;;4997948;28;20190;-84
2024/01/07 00:19:00;;;;;;;77.68;29.95;;;;;;;;;;4997601;28;20175;-86
2024/01/07 00:21:26;;;;;;;81.25;29.05;;;;;;;;;;4998278;28;20220;-85
2024/01/07 00:23:52;;;;;;;76.63;28.45;;;;;;;;;;4995970;28;20186;-85
2024/01/07 00:26:18;;;;;;;68.93;29.63;;;;;;;;;;4996849;28;20654;-86
2024/01/07 00:28:44;;;;;;;58.03;26.80;;;;;;;;;;4997689;28;20776;-85
2024/01/07 00:31:12;;;;;;;70.07;30.55;;;;;;;;;;4995908;28;20504;-85
2024/01/07 00:33:37;;;;;;;63.88;26.25;;;;;;;;;;4997159;28;20222;-85
2024/01/07 00:36:04;;;;;;;71.97;29.00;;;;;;;;;;4996238;28;20187;-85
2024/01/07 00:38:30;;;;;;;75.85;29.35;;;;;;;;;;4998522;28;20402;-85
2024/01/07 00:40:56;;;;;;;63.50;25.33;;;;;;;;;;5001774;28;20180;-87
2024/01/07 00:43:22;;;;;;;63.50;29.03;;;;;;;;;;5002962;28;20217;-85
2024/01/07 00:45:47;;;;;;;68.53;27.50;;;;;;;;;;5000150;28;20437;-85
2024/01/07 00:48:15;;;;;;;71.70;27.17;;;;;;;;;;5000916;28;20179;-84
2024/01/07 00:50:41;;;;;;;65.45;26.88;;;;;;;;;;5000863;28;20813;-85
2024/01/07 00:53:07;;;;;;;67.90;27.17;;;;;;;;;;5000719;28;20258;-85
2024/01/07 00:55:33;;;;;;;68.95;28.35;;;;;;;;;;5000623;28;20763;-85
2024/01/07 00:57:59;;;;;;;77.67;30.73;;;;;;;;;;5000713;28;20181;-86
2024/01/07 01:00:25;;;;;;;71.87;27.83;;;;;;;;;;4999667;28;20416;-85
2024/01/07 01:02:50;;;;;;;65.57;29.77;;;;;;;;;;5000841;28;20479;-85
2024/01/07 01:05:16;;;;;;;62.47;27.35;;;;;;;;;;5001037;28;20180;-85
2024/01/07 01:07:42;;;;;;;58.90;26.80;;;;;;;;;;4999394;28;20632;-85
2024/01/07 01:10:09;;;;;;;67.07;28.40;;;;;;;;;;5000042;28;20411;-85
2024/01/07 01:12:35;;;;;;;74.95;31.20;;;;;;;;;;5000066;28;20179;-86
2024/01/07 01:15:01;;;;;;;64.33;27.13;;;;;;;;;;5000407;28;20572;-86
2024/01/07 01:17:27;;;;;;;63.60;25.95;;;;;;;;;;5001155;28;20406;-85
2024/01/07 01:19:53;;;;;;;68.93;28.70;;;;;;;;;;5000708;28;20623;-83
2024/01/07 01:22:19;;;;;;;68.50;29.20;;;;;;;;;;5000951;28;20488;-83
2024/01/07 01:24:45;;;;;;;69.00;28.30;;;;;;;;;;5000045;28;20462;-83
2024/01/07 01:27:13;;;;;;;74.82;30.45;;;;;;;;;;4999492;28;21008;-86
2024/01/07 01:29:39;;;;;;;70.68;27.33;;;;;;;;;;5000479;28;20294;-86
2024/01/07 01:32:06;;;;;;;62.72;26.85;;;;;;;;;;4999699;28;20210;-86
2024/01/07 01:34:32;;;;;;;71.22;28.65;;;;;;;;;;4999674;28;20195;-86
2024/01/07 01:36:58;;;;;;;59.90;25.43;;;;;;;;;;4999974;28;20182;-86
2024/01/07 01:39:24;;;;;;;58.10;26.30;;;;;;;;;;4999719;28;20410;-86
2024/01/07 01:41:50;;;;;;;70.93;28.57;;;;;;;;;;4999321;28;20472;-85
2024/01/07 01:44:15;;;;;;;66.78;27.38;;;;;;;;;;4999518;28;20406;-86
2024/01/07 01:46:41;;;;;;;63.50;26.70;;;;;;;;;;5000127;28;20198;-86
2024/01/07 01:49:08;;;;;;;67.53;26.95;;;;;;;;;;4999068;28;20418;-85
2024/01/07 01:51:35;;;;;;;59.15;24.90;;;;;;;;;;4998732;28;20554;-85
2024/01/07 01:54:01;;;;;;;55.65;27.00;;;;;;;;;;4997968;28;20631;-87
2024/01/07 01:56:28;;;;;;;58.10;25.08;;;;;;;;;;4999748;28;20214;-85
2024/01/07 01:58:54;;;;;;;61.08;24.70;;;;;;;;;;4998837;28;20182;-85
2024/01/07 02:01:20;;;;;;;51.65;24.27;;;;;;;;;;4999206;28;20210;-86
2024/01/07 02:03:46;;;;;;;58.78;25.98;;;;;;;;;;5000209;28;20241;-85
2024/01/07 02:06:13;;;;;;;47.38;22.73;;;;;;;;;;4998800;28;20178;-85
2024/01/07 02:08:39;;;;;;;61.88;27.48;;;;;;;;;;4999509;28;20194;-85
2024/01/07 02:11:19;;;;;;;49.55;22.52;;;;;;;;;;4998920;28;20202;-86
2024/01/07 02:13:45;;;;;;;50.65;23.58;;;;;;;;;;4998743;28;20207;-85
2024/01/07 02:16:11;;;;;;;51.78;23.00;;;;;;;;;;4999498;28;20174;-86
2024/01/07 02:18:38;;;;;;;51.00;22.05;;;;;;;;;;4998906;28;20174;-86
2024/01/07 02:21:04;;;;;;;53.22;23.80;;;;;;;;;;4999419;28;20661;-86
2024/01/07 02:23:30;;;;;;;55.35;24.85;;;;;;;;;;4998443;28;20190;-86
2024/01/07 02:25:56;;;;;;;54.97;22.87;;;;;;;;;;4998091;28;20670;-86
2024/01/07 02:28:22;;;;;;;47.50;21.50;;;;;;;;;;4999138;28;20825;-83
2024/01/07 02:30:48;;;;;;;46.73;21.90;;;;;;;;;;4999057;28;20505;-83
2024/01/07 02:33:14;;;;;;;51.60;20.93;;;;;;;;;;4998595;28;20416;-83
2024/01/07 02:35:40;;;;;;;50.27;21.20;;;;;;;;;;4999403;28;20429;-83
2024/01/07 02:38:06;;;;;;;38.63;21.00;;;;;;;;;;4998090;28;20886;-83
2024/01/07 02:40:32;;;;;;;40.20;21.43;;;;;;;;;;4999172;28;20795;-83
2024/01/07 02:42:58;;;;;;;39.83;19.97;;;;;;;;;;5002108;28;20545;-82
2024/01/07 02:45:24;;;;;;;52.35;22.83;;;;;;;;;;5000953;28;20424;-83
2024/01/07 02:47:50;;;;;;;40.33;20.85;;;;;;;;;;4999554;28;20265;-83
2024/01/07 02:50:16;;;;;;;42.67;22.73;;;;;;;;;;4999545;28;20179;-84
2024/01/07 02:52:42;;;;;;;34.17;19.33;;;;;;;;;;4999354;28;20214;-85
2024/01/07 02:55:09;;;;;;;36.25;20.45;;;;;;;;;;4998899;28;20171;-85
2024/01/07 02:57:35;;;;;;;37.15;19.45;;;;;;;;;;4999192;28;20178;-85
2024/01/07 03:00:02;;;;;;;31.58;18.33;;;;;;;;;;4999058;28;20273;-84
2024/01/07 03:02:28;;;;;;;36.70;19.60;;;;;;;;;;4997936;28;20225;-84
2024/01/07 03:04:54;;;;;;;35.40;18.23;;;;;;;;;;4997944;28;20230;-84
2024/01/07 03:07:20;;;;;;;31.07;17.13;;;;;;;;;;4998905;28;20522;-85
2024/01/07 03:09:46;;;;;;;32.20;16.67;;;;;;;;;;4999204;28;20449;-84
2024/01/07 03:12:12;;;;;;;32.07;19.50;;;;;;;;;;4999024;28;20435;-85
2024/01/07 03:14:38;;;;;;;35.83;18.50;;;;;;;;;;4997754;28;20414;-84
2024/01/07 03:17:04;;;;;;;35.13;18.03;;;;;;;;;;4997260;28;20411;-84
2024/01/07 03:19:30;;;;;;;30.77;17.02;;;;;;;;;;4996719;28;20770;-85
2024/01/07 03:21:56;;;;;;;33.30;19.80;;;;;;;;;;4995721;28;20237;-84
2024/01/07 03:24:21;;;;;;;29.50;18.57;;;;;;;;;;4998316;28;20399;-85
2024/01/07 03:26:47;;;;;;;36.80;18.63;;;;;;;;;;4998727;28;20510;-85
2024/01/07 03:29:13;;;;;;;36.77;19.40;;;;;;;;;;4997672;28;20417;-85
2024/01/07 03:31:39;;;;;;;37.80;19.50;;;;;;;;;;4997708;28;20424;-85
2024/01/07 03:34:05;;;;;;;41.13;20.80;;;;;;;;;;4997890;28;20445;-84
2024/01/07 03:36:31;;;;;;;29.08;16.35;;;;;;;;;;4996572;28;20897;-84
2024/01/07 03:38:57;;;;;;;40.70;19.67;;;;;;;;;;4998155;28;20210;-84
2024/01/07 03:41:23;;;;;;;36.13;20.43;;;;;;;;;;4996737;28;20973;-84
2024/01/07 03:43:50;;;;;;;30.52;18.05;;;;;;;;;;4998123;28;20414;-84
2024/01/07 03:46:16;;;;;;;31.83;19.30;;;;;;;;;;4997315;28;20185;-84
2024/01/07 03:48:43;;;;;;;29.20;17.50;;;;;;;;;;4997109;28;20265;-84
2024/01/07 03:51:09;;;;;;;34.30;17.80;;;;;;;;;;4995729;28;20240;-85
2024/01/07 03:53:35;;;;;;;33.70;17.98;;;;;;;;;;4997753;28;20217;-84
2024/01/07 03:56:01;;;;;;;40.47;17.30;;;;;;;;;;4997462;28;20193;-84
2024/01/07 03:58:27;;;;;;;35.90;18.10;;;;;;;;;;4997261;28;20413;-84
2024/01/07 04:00:53;;;;;;;27.42;17.33;;;;;;;;;;4997051;28;20406;-84
2024/01/07 04:03:19;;;;;;;27.88;16.38;;;;;;;;;;4996661;28;20642;-85
2024/01/07 04:05:45;;;;;;;31.15;17.70;;;;;;;;;;4997543;28;20221;-84
2024/01/07 04:08:11;;;;;;;32.47;18.17;;;;;;;;;;4997080;28;20187;-85
2024/01/07 04:10:38;;;;;;;33.70;17.95;;;;;;;;;;4997756;28;20417;-84
2024/01/07 04:13:04;;;;;;;33.83;17.55;;;;;;;;;;4996416;28;20666;-84
2024/01/07 04:15:30;;;;;;;34.85;18.52;;;;;;;;;;4996696;28;20233;-84
2024/01/07 04:17:56;;;;;;;31.40;18.67;;;;;;;;;;4997202;28;20179;-84
2024/01/07 04:20:23;;;;;;;35.90;18.55;;;;;;;;;;4996480;28;20185;-85
2024/01/07 04:22:49;;;;;;;31.23;17.00;;;;;;;;;;4996969;28;20878;-85
2024/01/07 04:25:15;;;;;;;33.20;19.20;;;;;;;;;;4995964;28;20268;-85
2024/01/07 04:27:41;;;;;;;34.33;19.67;;;;;;;;;;4997159;28;20425;-85
2024/01/07 04:30:07;;;;;;;34.47;18.70;;;;;;;;;;4996631;28;20239;-84
2024/01/07 04:32:33;;;;;;;32.15;17.67;;;;;;;;;;4996629;28;20228;-85
2024/01/07 04:34:59;;;;;;;34.37;18.97;;;;;;;;;;4996734;28;20187;-85
2024/01/07 04:37:25;;;;;;;39.33;20.05;;;;;;;;;;4997481;28;20442;-85
2024/01/07 04:39:51;;;;;;;33.13;17.60;;;;;;;;;;4995865;28;20756;-85
2024/01/07 04:42:18;;;;;;;41.73;21.30;;;;;;;;;;4996509;28;20470;-85
2024/01/07 04:44:44;;;;;;;37.58;20.02;;;;;;;;;;4995467;28;20437;-85
2024/01/07 04:47:26;;;;;;;39.22;20.05;;;;;;;;;;4995294;28;20175;-84
2024/01/07 04:49:52;;;;;;;37.70;20.40;;;;;;;;;;4995635;28;20651;-84
2024/01/07 04:52:18;;;;;;;36.90;20.73;;;;;;;;;;4996377;28;20669;-84
2024/01/07 04:54:44;;;;;;;33.03;21.40;;;;;;;;;;4996784;28;20178;-84
2024/01/07 04:57:10;;;;;;;35.97;21.37;;;;;;;;;;4995764;28;20916;-85
2024/01/07 04:59:37;;;;;;;36.33;20.10;;;;;;;;;;4996736;28;20410;-85
2024/01/07 05:02:03;;;;;;;32.53;18.30;;;;;;;;;;4996713;28;20257;-84
2024/01/07 05:04:29;;;;;;;35.03;19.75;;;;;;;;;;4996678;28;20592;-85
2024/01/07 05:06:55;;;;;;;33.30;18.00;;;;;;;;;;4996510;28;20190;-84
2024/01/07 05:09:21;;;;;;;33.30;18.37;;;;;;;;;;4996817;28;20459;-85
2024/01/07 05:11:47;;;;;;;30.80;18.03;;;;;;;;;;4996800;28;20773;-85
2024/01/07 05:14:13;;;;;;;31.70;17.07;;;;;;;;;;4996399;28;20501;-85
2024/01/07 05:16:39;;;;;;;32.67;18.33;;;;;;;;;;4996706;28;20433;-84
2024/01/07 05:19:05;;;;;;;32.67;18.27;;;;;;;;;;4979219;28;20421;-84
2024/01/07 05:21:31;;;;;;;31.85;15.73;;;;;;;;;;4996599;28;20229;-85
2024/01/07 05:23:57;;;;;;;30.10;18.53;;;;;;;;;;4996996;28;20179;-84
2024/01/07 05:26:23;;;;;;;33.70;19.73;;;;;;;;;;4999496;28;20406;-85
2024/01/07 05:28:49;;;;;;;31.73;19.37;;;;;;;;;;5000225;28;20642;-85
2024/01/07 05:31:15;;;;;;;28.95;19.10;;;;;;;;;;5000274;28;20815;-85
2024/01/07 05:33:42;;;;;;;30.58;18.83;;;;;;;;;;5000083;28;20186;-85
2024/01/07 05:36:08;;;;;;;33.25;19.38;;;;;;;;;;4999965;28;20235;-85
2024/01/07 05:38:34;;;;;;;34.42;20.05;;;;;;;;;;4998751;28;20280;-84
2024/01/07 05:41:00;;;;;;;36.20;20.03;;;;;;;;;;4998419;28;20202;-85
2024/01/07 05:43:25;;;;;;;34.50;19.65;;;;;;;;;;4999631;28;20409;-85
2024/01/07 05:45:51;;;;;;;38.17;20.57;;;;;;;;;;4999699;28;20651;-84
2024/01/07 05:48:17;;;;;;;33.65;20.25;;;;;;;;;;4999435;28;20878;-84
2024/01/07 05:50:43;;;;;;;36.67;21.45;;;;;;;;;;4999874;28;20257;-84
2024/01/07 05:53:09;;;;;;;32.85;19.73;;;;;;;;;;4999733;28;20214;-85
2024/01/07 05:55:35;;;;;;;38.33;21.97;;;;;;;;;;4999712;28;20223;-85
2024/01/07 05:58:01;;;;;;;33.25;20.45;;;;;;;;;;4999533;28;20456;-84
2024/01/07 06:00:27;;;;;;;39.07;23.20;;;;;;;;;;4999490;28;20643;-84
2024/01/07 06:02:53;;;;;;;35.27;20.90;;;;;;;;;;4999061;28;20473;-84
2024/01/07 06:05:19;;;;;;;35.93;20.40;;;;;;;;;;4999517;28;20544;-85
2024/01/07 06:07:45;;;;;;;43.08;22.77;;;;;;;;;;4999308;28;20421;-84
2024/01/07 06:10:11;;;;;;;34.40;20.93;;;;;;;;;;4999461;28;20545;-84
2024/01/07 06:12:37;;;;;;;45.03;24.80;;;;;;;;;;4998635;28;20418;-84
2024/01/07 06:15:04;;;;;;;37.63;19.63;;;;;;;;;;4999393;28;20406;-84
2024/01/07 06:17:31;;;;;;;40.75;21.40;;;;;;;;;;4997372;28;20181;-84
2024/01/07 06:19:57;;;;;;;41.73;23.00;;;;;;;;;;4999787;28;20186;-84
2024/01/07 06:22:23;;;;;;;38.30;22.73;;;;;;;;;;4999115;28;20926;-85
2024/01/07 06:24:49;;;;;;;42.13;24.48;;;;;;;;;;4998811;28;20407;-84
2024/01/07 06:27:15;;;;;;;36.33;22.53;;;;;;;;;;4998991;28;20192;-84
2024/01/07 06:29:41;;;;;;;41.15;23.67;;;;;;;;;;4998813;28;20425;-84
2024/01/07 06:32:07;;;;;;;38.97;23.93;;;;;;;;;;4999012;28;20205;-84
2024/01/07 06:34:33;;;;;;;41.30;23.35;;;;;;;;;;4998908;28;20497;-85
2024/01/07 06:36:59;;;;;;;47.28;25.10;;;;;;;;;;4997690;28;20177;-84
2024/01/07 06:39:28;;;;;;;40.47;25.13;;;;;;;;;;4998494;28;20180;-84
2024/01/07 06:41:54;;;;;;;44.13;24.33;;;;;;;;;;4998346;28;20289;-84
2024/01/07 06:44:20;;;;;;;46.72;25.40;;;;;;;;;;4998507;28;20345;-85
2024/01/07 06:46:46;;;;;;;42.93;25.07;;;;;;;;;;4997429;28;20193;-84
2024/01/07 06:49:12;;;;;;;44.08;25.55;;;;;;;;;;4998831;28;20437;-84
2024/01/07 06:51:39;;;;;;;43.65;26.13;;;;;;;;;;4996764;28;20182;-84
2024/01/07 06:54:05;;;;;;;43.55;25.38;;;;;;;;;;4997983;28;20192;-84
2024/01/07 06:56:31;;;;;;;42.72;25.23;;;;;;;;;;4996552;28;20193;-84
2024/01/07 06:58:57;;;;;;;40.33;25.35;;;;;;;;;;4998335;28;20175;-85
2024/01/07 07:01:23;;;;;;;42.88;25.88;;;;;;;;;;4998089;28;20206;-85
2024/01/07 07:03:50;;;;;;;41.22;25.88;;;;;;;;;;4998299;28;20292;-84
2024/01/07 07:06:16;;;;;;;45.75;28.02;;;;;;;;;;4998405;28;20583;-84
2024/01/07 07:08:42;;;;;;;49.35;28.27;;;;;;;;;;4980759;28;20221;-84
2024/01/07 07:11:08;;;;;;;39.65;25.67;;;;;;;;;;4998321;28;20183;-84
2024/01/07 07:13:34;;;;;;;49.42;26.77;;;;;;;;;;5001639;28;20180;-84
2024/01/07 07:16:00;;;;;;;47.45;25.05;;;;;;;;;;5001124;28;20174;-84
2024/01/07 07:18:26;;;;;;;42.65;24.25;;;;;;;;;;4997098;28;20175;-84
2024/01/07 07:20:52;;;;;;;37.45;23.45;;;;;;;;;;4999202;28;20201;-84
2024/01/07 07:23:19;;;;;;;38.75;22.35;;;;;;;;;;4998350;28;20252;-84
2024/01/07 07:25:45;;;;;;;37.60;23.42;;;;;;;;;;4998199;28;20255;-84
2024/01/07 07:28:11;;;;;;;44.83;22.55;;;;;;;;;;4998265;28;20170;-84
2024/01/07 07:30:38;;;;;;;37.40;21.92;;;;;;;;;;4998244;28;20622;-84
2024/01/07 07:33:04;;;;;;;37.58;20.50;;;;;;;;;;4997523;28;20834;-84
2024/01/07 07:35:30;;;;;;;43.28;24.83;;;;;;;;;;4996556;28;20228;-85
2024/01/07 07:37:55;;;;;;;38.70;23.13;;;;;;;;;;4997585;28;20710;-84
2024/01/07 07:40:21;;;;;;;36.90;22.47;;;;;;;;;;4996288;28;20184;-84
2024/01/07 07:42:47;;;;;;;35.30;22.00;;;;;;;;;;4996643;28;20542;-83
2024/01/07 07:45:13;;;;;;;30.40;20.08;;;;;;;;;;4997578;28;20180;-84
2024/01/07 07:47:44;;;;;;;37.03;21.67;;;;;;;;;;4995590;28;20277;-84
2024/01/07 07:50:10;;;;;;;29.85;19.88;;;;;;;;;;4997751;28;20216;-84
2024/01/07 07:52:36;;;;;;;35.65;21.60;;;;;;;;;;5002734;28;20181;-83
2024/01/07 07:55:02;;;;;;;32.72;21.27;;;;;;;;;;5001280;28;20174;-84
2024/01/07 07:57:28;;;;;;;37.05;22.25;;;;;;;;;;4996779;28;20186;-84
2024/01/07 07:59:55;;;;;;;37.97;23.02;;;;;;;;;;4997041;28;20219;-84
2024/01/07 08:02:21;;;;;;;37.15;21.80;;;;;;;;;;4997082;28;20204;-83
2024/01/07 08:04:47;;;;;;;38.15;21.77;;;;;;;;;;4997048;28;20233;-84
2024/01/07 08:07:13;;;;;;;37.03;21.90;;;;;;;;;;4996754;28;20183;-84
2024/01/07 08:09:39;;;;;;;36.25;22.52;;;;;;;;;;4996763;28;20638;-84
2024/01/07 08:12:06;;;;;;;37.27;21.67;;;;;;;;;;4995640;28;20187;-84
2024/01/07 08:14:32;;;;;;;35.03;21.48;;;;;;;;;;4995479;28;20413;-84
2024/01/07 08:16:58;;;;;;;35.53;22.20;;;;;;;;;;4996996;28;20175;-84
2024/01/07 08:19:24;;;;;;;39.10;22.47;;;;;;;;;;4996434;28;20208;-84
2024/01/07 08:21:50;;;;;;;35.57;21.37;;;;;;;;;;4995367;28;20472;-84
2024/01/07 08:24:16;;;;;;;32.27;21.47;;;;;;;;;;4997165;28;20460;-84
2024/01/07 08:26:42;;;;;;;32.70;21.35;;;;;;;;;;4996781;28;20403;-84
2024/01/07 08:29:08;;;;;;;64.93;35.58;;;;;;;;;;4996869;28;20180;-84
2024/01/07 08:31:34;;;;;;;43.92;30.45;;;;;;;;;;4995746;28;20204;-84
2024/01/07 08:34:00;;;;;;;35.88;28.13;;;;;;;;;;4997194;28;20188;-84
2024/01/07 08:36:26;;;;;;;33.75;21.23;;;;;;;;;;4996171;28;20206;-84
2024/01/07 08:38:52;;;;;;;29.60;17.47;;;;;;;;;;4997163;28;20189;-84
2024/01/07 08:41:18;;;;;;;28.23;18.55;;;;;;;;;;4995370;28;20531;-84
2024/01/07 08:43:45;;;;;;;33.22;19.77;;;;;;;;;;4996754;28;20386;-84
2024/01/07 08:46:13;;;;;;;27.70;17.13;;;;;;;;;;4996630;28;20183;-84
2024/01/07 08:48:39;;;;;;;31.77;21.52;;;;;;;;;;4996772;28;20264;-84
2024/01/07 08:51:05;;;;;;;33.73;21.57;;;;;;;;;;4996467;28;20213;-83
2024/01/07 08:53:32;;;;;;;33.35;20.85;;;;;;;;;;4996387;28;20404;-84
2024/01/07 08:55:58;;;;;;;32.78;21.83;;;;;;;;;;4996162;28;20198;-83
2024/01/07 08:58:24;;;;;;;31.05;18.50;;;;;;;;;;4996240;28;20168;-84
2024/01/07 09:00:50;;;;;;;37.60;20.98;;;;;;;;;;4999799;28;20193;-84
2024/01/07 09:03:16;;;;;;;40.13;23.75;;;;;;;;;;4999795;28;20239;-83
2024/01/07 09:05:42;;;;;;;37.07;22.20;;;;;;;;;;5000502;28;20207;-84
2024/01/07 09:08:08;;;;;;;35.38;22.02;;;;;;;;;;4998929;28;20447;-84
2024/01/07 09:10:34;;;;;;;34.45;21.88;;;;;;;;;;4999419;28;20181;-84
2024/01/07 09:13:00;;;;;;;36.33;20.73;;;;;;;;;;4999659;28;20182;-84
2024/01/07 09:15:26;;;;;;;31.75;20.48;;;;;;;;;;5000981;28;20413;-84
2024/01/07 09:17:52;;;;;;;37.20;21.88;;;;;;;;;;5000286;28;20645;-84
2024/01/07 09:20:18;;;;;;;32.58;19.80;;;;;;;;;;5000110;28;20179;-83
2024/01/07 09:22:44;;;;;;;39.30;21.33;;;;;;;;;;5000158;28;20207;-84
2024/01/07 09:25:11;;;;;;;37.53;21.50;;;;;;;;;;5000414;28;20195;-84
2024/01/07 09:27:37;;;;;;;32.05;21.30;;;;;;;;;;4999924;28;20402;-84
2024/01/07 09:30:03;;;;;;;34.47;21.52;;;;;;;;;;5000182;28;20183;-84
2024/01/07 09:32:29;;;;;;;50.63;22.42;;;;;;;;;;4998398;28;20660;-84
2024/01/07 09:34:55;;;;;;;36.07;22.00;;;;;;;;;;5000483;28;20189;-84
2024/01/07 09:37:21;;;;;;;35.33;22.87;;;;;;;;;;4998686;28;20484;-84
2024/01/07 09:39:47;;;;;;;33.10;20.92;;;;;;;;;;5000190;28;20868;-84
2024/01/07 09:42:14;;;;;;;34.78;21.83;;;;;;;;;;4999667;28;20211;-84
2024/01/07 09:44:44;;;;;;;32.33;19.83;;;;;;;;;;4999627;28;20191;-84
2024/01/07 09:47:11;;;;;;;31.60;21.60;;;;;;;;;;4999344;28;20174;-84
2024/01/07 09:49:37;;;;;;;32.30;19.80;;;;;;;;;;4999818;28;20258;-84
2024/01/07 09:52:04;;;;;;;34.20;22.00;;;;;;;;;;5000033;28;20178;-84
2024/01/07 09:54:30;;;;;;;46.95;27.52;;;;;;;;;;5000154;28;20177;-84
2024/01/07 09:57:01;;;;;;;38.53;24.48;;;;;;;;;;4999586;28;20183;-84
2024/01/07 09:59:29;;;;;;;42.25;25.15;;;;;;;;;;4999834;28;20172;-84
2024/01/07 10:01:55;;;;;;;38.78;25.27;;;;;;;;;;4999131;28;20244;-84
2024/01/07 10:04:21;;;;;;;35.40;20.25;;;;;;;;;;4999468;28;20235;-85
2024/01/07 10:06:48;;;;;;;39.97;23.57;;;;;;;;;;4999114;28;20190;-85
2024/01/07 10:09:15;;;;;;;41.78;27.17;;;;;;;;;;4999713;28;20827;-85
2024/01/07 10:11:41;;;;;;;42.97;27.60;;;;;;;;;;4998054;28;20188;-85
2024/01/07 10:14:07;;;;;;;30.83;22.48;;;;;;;;;;4999379;28;20670;-85
2024/01/07 10:16:33;;;;;;;32.97;20.63;;;;;;;;;;4998938;28;20278;-85
2024/01/07 10:18:59;;;;;;;36.17;21.02;;;;;;;;;;4998723;28;20414;-85
2024/01/07 10:21:25;;;;;;;27.02;19.23;;;;;;;;;;4999180;28;20204;-85
2024/01/07 10:23:51;;;;;;;30.77;20.02;;;;;;;;;;4998991;28;20184;-85
2024/01/07 10:26:17;;;;;;;24.92;16.85;;;;;;;;;;4999141;28;20170;-85
2024/01/07 10:28:43;;;;;;;24.67;16.97;;;;;;;;;;4999140;28;20183;-86
2024/01/07 10:31:09;;;;;;;24.13;16.35;;;;;;;;;;4999357;28;20412;-85
2024/01/07 10:33:35;;;;;;;20.77;14.23;;;;;;;;;;4999110;28;20204;-86
2024/01/07 10:36:03;;;;;;;24.17;16.25;;;;;;;;;;4999103;28;20185;-85
2024/01/07 10:38:30;;;;;;;20.80;14.30;;;;;;;;;;4999423;28;20180;-85
2024/01/07 10:40:56;;;;;;;19.15;14.13;;;;;;;;;;4999137;28;20265;-85
2024/01/07 10:43:22;;;;;;;16.38;11.07;;;;;;;;;;4999929;28;20246;-85
2024/01/07 10:45:48;;;;;;;18.98;12.40;;;;;;;;;;4999452;28;20188;-85
2024/01/07 10:48:18;;;;;;;22.02;14.02;;;;;;;;;;4999148;28;20566;-85
2024/01/07 10:50:46;;;;;;;15.73;13.02;;;;;;;;;;4999359;28;20184;-85
2024/01/07 10:53:15;;;;;;;16.90;12.38;;;;;;;;;;4999280;28;20173;-85
2024/01/07 10:55:42;;;;;;;19.23;14.38;;;;;;;;;;4999033;28;20175;-85
2024/01/07 10:58:09;;;;;;;18.80;13.32;;;;;;;;;;4998830;28;20191;-85
2024/01/07 11:00:35;;;;;;;20.88;13.15;;;;;;;;;;4998685;28;20182;-86
2024/01/07 11:03:10;;;;;;;19.13;13.35;;;;;;;;;;4998179;28;20294;-85
2024/01/07 11:05:49;;;;;;;18.20;12.68;;;;;;;;;;4997994;28;20640;-85
2024/01/07 11:08:24;;;;;;;18.90;13.27;;;;;;;;;;4999643;28;20180;-85
2024/01/07 11:10:59;;;;;;;19.02;14.07;;;;;;;;;;4998439;28;20259;-86
2024/01/07 11:13:37;;;;;;;18.10;13.80;;;;;;;;;;4997156;28;20518;-85
2024/01/07 11:16:03;;;;;;;22.05;15.65;;;;;;;;;;4998654;28;20175;-85
2024/01/07 11:18:31;;;;;;;34.67;15.77;;;;;;;;;;4998597;28;20175;-85
2024/01/07 11:21:00;;;;;;;25.45;14.85;;;;;;;;;;4998213;28;20632;-85
2024/01/07 11:23:30;;;;;;;22.73;15.77;;;;;;;;;;5002009;28;20206;-85
2024/01/07 11:26:03;;;;;;;21.77;16.17;;;;;;;;;;5000768;28;20180;-86
2024/01/07 11:28:45;;;;;;;25.02;17.60;;;;;;;;;;4998270;28;20185;-85
2024/01/07 11:31:11;;;;;;;25.48;16.08;;;;;;;;;;4998692;28;20307;-85
2024/01/07 11:33:37;;;;;;;22.60;15.60;;;;;;;;;;4996722;28;20184;-86
2024/01/07 11:36:05;;;;;;;21.67;16.67;;;;;;;;;;4999041;28;20186;-85
2024/01/07 11:38:31;;;;;;;25.52;15.88;;;;;;;;;;4998599;28;20184;-85
2024/01/07 11:40:58;;;;;;;23.77;15.07;;;;;;;;;;4998395;28;20179;-85
2024/01/07 11:43:24;;;;;;;23.20;17.45;;;;;;;;;;5009370;28;20213;-85
2024/01/07 11:45:51;;;;;;;26.50;15.80;;;;;;;;;;4997028;28;20238;-85
2024/01/07 11:48:17;;;;;;;20.33;14.80;;;;;;;;;;4997870;28;20172;-84
2024/01/07 11:50:43;;;;;;;21.65;14.77;;;;;;;;;;4998064;28;20206;-85
2024/01/07 11:53:09;;;;;;;16.70;13.33;;;;;;;;;;4998007;28;20186;-85
2024/01/07 11:55:36;;;;;;;20.88;14.77;;;;;;;;;;4997845;28;20417;-84
2024/01/07 11:58:03;;;;;;;21.02;14.00;;;;;;;;;;4996318;28;20710;-84
2024/01/07 12:00:31;;;;;;;20.33;13.85;;;;;;;;;;4997703;28;20183;-84
2024/01/07 12:02:57;;;;;;;19.35;13.88;;;;;;;;;;4997142;28;20230;-85
2024/01/07 12:05:23;;;;;;;18.80;13.30;;;;;;;;;;4998776;28;20548;-85
2024/01/07 12:07:49;;;;;;;20.73;13.23;;;;;;;;;;4997215;28;20184;-85
2024/01/07 12:10:17;;;;;;;22.38;14.00;;;;;;;;;;4998095;28;20929;-84
2024/01/07 12:12:43;;;;;;;22.52;12.38;;;;;;;;;;4997472;28;20184;-85
2024/01/07 12:15:11;;;;;;;10.30;6.78;;;;;;;;;;4998459;28;20542;-84
2024/01/07 12:17:38;;;;;;;16.75;11.98;;;;;;;;;;4998222;28;20218;-85
2024/01/07 12:20:06;;;;;;;17.77;12.00;;;;;;;;;;4998277;28;20176;-84
2024/01/07 12:22:32;;;;;;;17.50;12.57;;;;;;;;;;4997560;28;20207;-84
2024/01/07 12:25:06;;;;;;;18.90;11.73;;;;;;;;;;4997396;28;20184;-84
2024/01/07 12:27:32;;;;;;;17.27;10.30;;;;;;;;;;4998232;28;20508;-84
2024/01/07 12:29:58;;;;;;;14.85;11.20;;;;;;;;;;4997914;28;20200;-85
2024/01/07 12:32:27;;;;;;;14.15;9.95;;;;;;;;;;4997939;28;20262;-84
2024/01/07 12:34:53;;;;;;;14.05;11.80;;;;;;;;;;5000574;28;20193;-85
2024/01/07 12:37:19;;;;;;;13.87;10.20;;;;;;;;;;5001820;28;20589;-84
2024/01/07 12:39:45;;;;;;;12.70;9.70;;;;;;;;;;5002113;28;20413;-84
2024/01/07 12:42:13;;;;;;;13.70;10.90;;;;;;;;;;5001502;28;20498;-84
2024/01/07 12:44:39;;;;;;;14.00;10.75;;;;;;;;;;5002443;28;20411;-84
2024/01/07 12:47:05;;;;;;;14.15;10.18;;;;;;;;;;5001885;28;20180;-84
2024/01/07 12:49:31;;;;;;;17.60;10.82;;;;;;;;;;5001913;28;20183;-84
2024/01/07 12:51:58;;;;;;;15.88;10.70;;;;;;;;;;5001392;28;20181;-84
2024/01/07 12:54:24;;;;;;;16.35;10.30;;;;;;;;;;5001669;28;20527;-84
2024/01/07 12:56:51;;;;;;;17.73;11.10;;;;;;;;;;5001479;28;20191;-84
2024/01/07 12:59:17;;;;;;;16.02;10.27;;;;;;;;;;5000599;28;20178;-84
2024/01/07 13:01:43;;;;;;;14.40;10.10;;;;;;;;;;5001428;28;20273;-84
2024/01/07 13:04:09;;;;;;;15.52;8.85;;;;;;;;;;5000483;28;20727;-83
2024/01/07 13:06:36;;;;;;;13.98;9.02;;;;;;;;;;5000581;28;20183;-83
2024/01/07 13:09:03;;;;;;;15.55;9.63;;;;;;;;;;5001378;28;20179;-83
2024/01/07 13:11:30;;;;;;;13.05;8.25;;;;;;;;;;5001824;28;20199;-84
2024/01/07 13:13:59;;;;;;;18.27;9.82;;;;;;;;;;5001165;28;20176;-84
2024/01/07 13:16:26;;;;;;;13.68;8.75;;;;;;;;;;5000509;28;20179;-83
2024/01/07 13:18:52;;;;;;;20.05;11.60;;;;;;;;;;5001122;28;20503;-84
2024/01/07 13:21:18;;;;;;;31.10;19.10;;;;;;;;;;5001006;28;20182;-84
2024/01/07 13:23:44;;;;;;;15.10;10.37;;;;;;;;;;5001732;28;20594;-84
2024/01/07 13:26:13;;;;;;;12.32;8.35;;;;;;;;;;5001106;28;20399;-84
2024/01/07 13:28:39;;;;;;;10.40;8.07;;;;;;;;;;4999850;28;20248;-83
2024/01/07 13:31:06;;;;;;;13.90;10.10;;;;;;;;;;4999842;28;20265;-83
2024/01/07 13:33:32;;;;;;;7.07;5.90;;;;;;;;;;5001526;28;20419;-83
2024/01/07 13:35:58;;;;;;;18.10;10.48;;;;;;;;;;5000861;28;20177;-83
2024/01/07 13:38:24;;;;;;;14.45;9.07;;;;;;;;;;4999909;28;20176;-83
2024/01/07 13:40:51;;;;;;;15.93;8.93;;;;;;;;;;5000633;28;20655;-84
2024/01/07 13:43:17;;;;;;;10.85;8.20;;;;;;;;;;5001736;28;20216;-83
2024/01/07 13:45:43;;;;;;;8.17;6.57;;;;;;;;;;4984060;28;20651;-84
2024/01/07 13:48:09;;;;;;;9.33;6.93;;;;;;;;;;5000147;28;20403;-83
2024/01/07 13:50:35;;;;;;;9.15;7.63;;;;;;;;;;5001970;28;20814;-82
2024/01/07 13:53:02;;;;;;;8.47;7.07;;;;;;;;;;5000933;28;20282;-83
2024/01/07 13:55:28;;;;;;;9.68;7.40;;;;;;;;;;5001019;28;20849;-83
2024/01/07 13:57:54;;;;;;;12.13;7.85;;;;;;;;;;5001439;28;20178;-83
2024/01/07 14:00:21;;;;;;;12.75;8.65;;;;;;;;;;5000924;28;20635;-82
2024/01/07 14:02:48;;;;;;;9.23;7.80;;;;;;;;;;5000715;28;20220;-83
2024/01/07 14:05:16;;;;;;;9.93;6.55;;;;;;;;;;5001221;28;20195;-82
2024/01/07 14:07:42;;;;;;;7.20;6.50;;;;;;;;;;4999571;28;20226;-83
2024/01/07 14:10:08;;;;;;;8.17;7.20;;;;;;;;;;5001035;28;20181;-82
2024/01/07 14:12:34;;;;;;;9.05;7.10;;;;;;;;;;5000828;28;20444;-82
2024/01/07 14:15:00;;;;;;;9.18;6.97;;;;;;;;;;5000444;28;20176;-82